Time;durP1;ratioP1;P1;durP2;ratioP2;P2;SDS_P1;SDS_P2;PMS_P1;PMS_P2;Temp;Humidity;BMP_temperature;BMP_pressure;BME280_temperature;BME280_humidity;BME280_pressure;Samples;Min_cycle;Max_cycle;Signal;HPM_P1;HPM_P2
2023/08/11 00:00:01;;;;;;;13.93;7.55;;;;;;;;;;5035535;28;20025;-55
2023/08/11 00:02:27;;;;;;;15.90;8.27;;;;;;;;;;5036005;28;20108;-55
2023/08/11 00:04:53;;;;;;;12.07;7.32;;;;;;;;;;5032650;28;20616;-52
2023/08/11 00:07:19;;;;;;;13.45;6.78;;;;;;;;;;5030388;28;20400;-54
2023/08/11 00:09:45;;;;;;;12.20;7.25;;;;;;;;;;5030268;28;20022;-54
2023/08/11 00:12:11;;;;;;;11.98;6.88;;;;;;;;;;5033819;28;20039;-57
2023/08/11 00:14:37;;;;;;;19.15;7.57;;;;;;;;;;5026230;28;20441;-53
2023/08/11 00:17:04;;;;;;;15.05;7.22;;;;;;;;;;5032121;28;20078;-55
2023/08/11 00:19:30;;;;;;;23.65;7.63;;;;;;;;;;5027838;28;20037;-58
2023/08/11 00:21:56;;;;;;;14.07;7.53;;;;;;;;;;5029540;28;20041;-59
2023/08/11 00:24:23;;;;;;;14.70;7.18;;;;;;;;;;5030620;28;20025;-58
2023/08/11 00:26:49;;;;;;;11.13;6.82;;;;;;;;;;5035101;28;20036;-55
2023/08/11 00:29:15;;;;;;;15.32;7.32;;;;;;;;;;5028699;28;20022;-59
2023/08/11 00:31:41;;;;;;;19.88;7.53;;;;;;;;;;5030230;28;20437;-53
2023/08/11 00:34:07;;;;;;;13.60;7.32;;;;;;;;;;5034771;28;20041;-54
2023/08/11 00:36:34;;;;;;;20.73;7.50;;;;;;;;;;5042141;28;20040;-50
2023/08/11 00:39:00;;;;;;;10.10;7.03;;;;;;;;;;5030810;28;20037;-56
2023/08/11 00:41:27;;;;;;;19.27;8.20;;;;;;;;;;5032998;28;20130;-53
2023/08/11 00:43:53;;;;;;;12.75;7.75;;;;;;;;;;5028494;28;20029;-58
2023/08/11 00:46:20;;;;;;;13.88;7.03;;;;;;;;;;5035409;28;20017;-58
2023/08/11 00:48:50;;;;;;;15.00;7.32;;;;;;;;;;5035958;28;20075;-56
2023/08/11 00:51:17;;;;;;;15.85;7.18;;;;;;;;;;5049092;28;20021;-56
2023/08/11 00:53:45;;;;;;;10.20;6.43;;;;;;;;;;5039069;28;20389;-56
2023/08/11 00:56:12;;;;;;;13.80;6.78;;;;;;;;;;5035473;28;20579;-57
2023/08/11 00:58:38;;;;;;;10.85;6.88;;;;;;;;;;5033394;28;20083;-57
2023/08/11 01:01:04;;;;;;;13.43;7.30;;;;;;;;;;5038225;28;20079;-56
2023/08/11 01:03:31;;;;;;;11.57;6.53;;;;;;;;;;5036353;28;20029;-56
2023/08/11 01:06:19;;;;;;;11.90;6.82;;;;;;;;;;5032878;28;20022;-54
2023/08/11 01:08:51;;;;;;;13.25;7.05;;;;;;;;;;5040523;28;20053;-55
2023/08/11 01:11:22;;;;;;;14.98;6.03;;;;;;;;;;5034298;28;20028;-55
2023/08/11 01:14:08;;;;;;;19.45;6.65;;;;;;;;;;5031439;28;20040;-57
2023/08/11 01:16:35;;;;;;;12.30;6.07;;;;;;;;;;5030821;28;20094;-56
2023/08/11 01:19:02;;;;;;;11.95;5.78;;;;;;;;;;5038934;28;20029;-57
2023/08/11 01:21:29;;;;;;;16.20;6.65;;;;;;;;;;5033536;28;20158;-57
2023/08/11 01:23:56;;;;;;;10.73;6.30;;;;;;;;;;5034609;28;20044;-56
2023/08/11 01:26:22;;;;;;;16.95;6.13;;;;;;;;;;5032897;28;20033;-54
2023/08/11 01:28:48;;;;;;;8.45;5.35;;;;;;;;;;5033288;28;20104;-56
2023/08/11 01:31:14;;;;;;;12.27;6.63;;;;;;;;;;5033176;28;20113;-52
2023/08/11 01:33:40;;;;;;;13.38;5.82;;;;;;;;;;5031617;28;20026;-51
2023/08/11 01:36:08;;;;;;;11.60;5.72;;;;;;;;;;5034923;28;20026;-58
2023/08/11 01:38:34;;;;;;;12.05;5.70;;;;;;;;;;5029485;28;20025;-56
2023/08/11 01:41:00;;;;;;;10.30;5.55;;;;;;;;;;5030891;28;20378;-56
2023/08/11 01:43:26;;;;;;;7.32;5.22;;;;;;;;;;5031114;28;20051;-59
2023/08/11 01:45:53;;;;;;;11.10;5.45;;;;;;;;;;5029022;28;20052;-58
2023/08/11 01:48:19;;;;;;;14.13;5.90;;;;;;;;;;5033569;28;20037;-56
2023/08/11 01:50:46;;;;;;;10.48;6.00;;;;;;;;;;5030854;28;20021;-56
2023/08/11 01:53:12;;;;;;;8.10;5.35;;;;;;;;;;5032548;28;20022;-57
2023/08/11 01:55:38;;;;;;;11.18;6.78;;;;;;;;;;5031528;28;20029;-54
2023/08/11 01:58:06;;;;;;;17.58;6.28;;;;;;;;;;5038940;28;20071;-57
2023/08/11 02:00:32;;;;;;;14.45;5.97;;;;;;;;;;5032246;28;20140;-55
2023/08/11 02:02:58;;;;;;;10.80;5.90;;;;;;;;;;5030475;28;20128;-54
2023/08/11 02:05:24;;;;;;;16.13;6.28;;;;;;;;;;5036358;28;20048;-54
2023/08/11 02:07:50;;;;;;;10.98;6.93;;;;;;;;;;5031468;28;20438;-57
2023/08/11 02:10:16;;;;;;;10.23;5.97;;;;;;;;;;5035895;28;20037;-53
2023/08/11 02:12:42;;;;;;;14.93;6.25;;;;;;;;;;5032109;28;20148;-57
2023/08/11 02:15:10;;;;;;;9.63;5.82;;;;;;;;;;5028696;28;20061;-55
2023/08/11 02:17:37;;;;;;;9.30;6.40;;;;;;;;;;5037371;28;20033;-53
2023/08/11 02:20:17;;;;;;;12.88;5.90;;;;;;;;;;5033614;28;20209;-54
2023/08/11 02:22:43;;;;;;;13.57;5.95;;;;;;;;;;5035984;28;20040;-56
2023/08/11 02:25:09;;;;;;;13.73;5.60;;;;;;;;;;5032391;28;20029;-52
2023/08/11 02:27:35;;;;;;;10.90;5.10;;;;;;;;;;5038766;28;20497;-55
2023/08/11 02:30:04;;;;;;;12.52;4.80;;;;;;;;;;5029220;28;20389;-56
2023/08/11 02:32:30;;;;;;;8.63;4.93;;;;;;;;;;5030682;28;20577;-57
2023/08/11 02:34:56;;;;;;;14.00;5.00;;;;;;;;;;5038426;28;20039;-55
2023/08/11 02:37:22;;;;;;;7.95;5.32;;;;;;;;;;5036219;28;20037;-56
2023/08/11 02:39:48;;;;;;;8.10;4.65;;;;;;;;;;5032975;28;20033;-55
2023/08/11 02:42:14;;;;;;;10.40;5.47;;;;;;;;;;5031646;28;20041;-55
2023/08/11 02:44:40;;;;;;;14.82;5.80;;;;;;;;;;5028794;28;20025;-55
2023/08/11 02:47:06;;;;;;;12.75;5.18;;;;;;;;;;5027209;28;20017;-59
2023/08/11 02:49:32;;;;;;;6.25;4.55;;;;;;;;;;5031246;28;20057;-56
2023/08/11 02:51:58;;;;;;;6.32;4.40;;;;;;;;;;5038336;28;20033;-56
2023/08/11 02:54:24;;;;;;;12.15;5.20;;;;;;;;;;5031691;28;20035;-57
2023/08/11 02:56:51;;;;;;;10.35;5.43;;;;;;;;;;5040065;28;20016;-55
2023/08/11 02:59:17;;;;;;;11.02;4.93;;;;;;;;;;5032309;28;20501;-54
2023/08/11 03:01:44;;;;;;;8.73;4.80;;;;;;;;;;5036881;28;20041;-56
2023/08/11 03:04:10;;;;;;;11.27;4.90;;;;;;;;;;5031686;28;20033;-56
2023/08/11 03:06:36;;;;;;;12.95;5.75;;;;;;;;;;5032784;28;20021;-58
2023/08/11 03:09:03;;;;;;;8.88;4.95;;;;;;;;;;5038023;28;20084;-54
2023/08/11 03:11:29;;;;;;;8.48;5.10;;;;;;;;;;5031010;28;20124;-54
2023/08/11 03:13:55;;;;;;;9.30;5.03;;;;;;;;;;5032689;28;20220;-55
2023/08/11 03:16:22;;;;;;;13.32;4.75;;;;;;;;;;5030045;28;20025;-56
2023/08/11 03:18:48;;;;;;;9.52;4.97;;;;;;;;;;5031421;28;20084;-55
2023/08/11 03:21:14;;;;;;;8.75;5.35;;;;;;;;;;5028906;28;20740;-53
2023/08/11 03:23:40;;;;;;;9.65;4.95;;;;;;;;;;5039377;28;20504;-56
2023/08/11 03:26:06;;;;;;;11.60;4.88;;;;;;;;;;5025579;28;20026;-55
2023/08/11 03:28:32;;;;;;;15.05;5.43;;;;;;;;;;5028920;28;20490;-54
2023/08/11 03:31:00;;;;;;;9.82;4.63;;;;;;;;;;5029751;28;20035;-57
2023/08/11 03:33:25;;;;;;;6.70;4.68;;;;;;;;;;5029892;28;20382;-56
2023/08/11 03:35:51;;;;;;;16.73;5.30;;;;;;;;;;5032112;28;20043;-54
2023/08/11 03:38:18;;;;;;;8.13;5.10;;;;;;;;;;5030725;28;20109;-51
2023/08/11 03:40:43;;;;;;;10.45;4.80;;;;;;;;;;5039265;28;20096;-51
2023/08/11 03:43:09;;;;;;;20.60;5.80;;;;;;;;;;5035681;28;20112;-51
2023/08/11 03:45:36;;;;;;;9.95;5.22;;;;;;;;;;5032004;28;20053;-52
2023/08/11 03:48:02;;;;;;;12.77;5.03;;;;;;;;;;5029055;28;20027;-57
2023/08/11 03:50:28;;;;;;;18.42;5.28;;;;;;;;;;5045303;28;20079;-53
2023/08/11 03:52:54;;;;;;;14.75;5.85;;;;;;;;;;5039737;28;20033;-55
2023/08/11 03:55:20;;;;;;;13.40;4.85;;;;;;;;;;5035293;28;20036;-52
2023/08/11 03:57:46;;;;;;;9.73;4.95;;;;;;;;;;5031641;28;20709;-52
2023/08/11 04:00:15;;;;;;;9.88;5.47;;;;;;;;;;5028631;28;20034;-54
2023/08/11 04:02:44;;;;;;;17.63;5.82;;;;;;;;;;5031550;28;20036;-54
2023/08/11 04:05:11;;;;;;;13.68;5.03;;;;;;;;;;5033845;28;20490;-54
2023/08/11 04:07:37;;;;;;;15.38;5.22;;;;;;;;;;5026534;28;20025;-50
2023/08/11 04:10:04;;;;;;;9.55;5.18;;;;;;;;;;5033096;28;20052;-53
2023/08/11 04:12:30;;;;;;;14.95;4.88;;;;;;;;;;5027498;28;20033;-53
2023/08/11 04:14:56;;;;;;;13.82;5.32;;;;;;;;;;5050302;28;20082;-56
2023/08/11 04:17:22;;;;;;;12.50;4.47;;;;;;;;;;5031123;28;20046;-54
2023/08/11 04:19:48;;;;;;;9.18;5.60;;;;;;;;;;5031436;28;20044;-53
2023/08/11 04:22:14;;;;;;;9.88;5.07;;;;;;;;;;5031552;28;20132;-58
2023/08/11 04:24:41;;;;;;;11.63;5.35;;;;;;;;;;5033142;28;20019;-56
2023/08/11 04:27:07;;;;;;;14.10;5.43;;;;;;;;;;5024382;28;20611;-55
2023/08/11 04:29:33;;;;;;;10.82;4.63;;;;;;;;;;5027230;28;20021;-54
2023/08/11 04:32:04;;;;;;;9.07;5.38;;;;;;;;;;5028707;28;20025;-55
2023/08/11 04:34:30;;;;;;;16.60;5.95;;;;;;;;;;5030158;28;20033;-57
2023/08/11 04:36:56;;;;;;;7.03;4.75;;;;;;;;;;5025155;28;20025;-56
2023/08/11 04:39:22;;;;;;;13.43;5.82;;;;;;;;;;5029214;28;20034;-57
2023/08/11 04:41:48;;;;;;;9.88;4.75;;;;;;;;;;5032624;28;20029;-55
2023/08/11 04:44:14;;;;;;;10.32;4.95;;;;;;;;;;5032043;28;20043;-54
2023/08/11 04:46:40;;;;;;;12.18;4.68;;;;;;;;;;5029094;28;20037;-57
2023/08/11 04:49:06;;;;;;;13.40;4.75;;;;;;;;;;5034928;28;20017;-58
2023/08/11 04:51:32;;;;;;;8.63;5.10;;;;;;;;;;5027121;28;20397;-54
2023/08/11 04:54:02;;;;;;;15.00;5.20;;;;;;;;;;5024851;28;20037;-57
2023/08/11 04:56:28;;;;;;;9.90;4.97;;;;;;;;;;5028020;28;20456;-55
2023/08/11 04:58:55;;;;;;;8.30;4.90;;;;;;;;;;5032425;28;20029;-57
2023/08/11 05:01:21;;;;;;;11.18;4.57;;;;;;;;;;5025913;28;20881;-55
2023/08/11 05:03:53;;;;;;;17.50;5.78;;;;;;;;;;5028262;28;20060;-53
2023/08/11 05:06:19;;;;;;;9.38;5.18;;;;;;;;;;5027687;28;20033;-56
2023/08/11 05:08:47;;;;;;;11.25;5.03;;;;;;;;;;5030210;28;20025;-52
2023/08/11 05:11:13;;;;;;;10.40;5.35;;;;;;;;;;5029214;28;20033;-56
2023/08/11 05:13:39;;;;;;;15.80;5.95;;;;;;;;;;5033636;28;20602;-55
2023/08/11 05:16:05;;;;;;;10.93;4.97;;;;;;;;;;5035195;28;20051;-51
2023/08/11 05:18:31;;;;;;;13.95;5.38;;;;;;;;;;5035314;28;20022;-51
2023/08/11 05:20:56;;;;;;;14.70;4.63;;;;;;;;;;5031344;28;20060;-55
2023/08/11 05:23:22;;;;;;;10.40;4.70;;;;;;;;;;5031889;28;20056;-54
2023/08/11 05:25:50;;;;;;;10.70;4.63;;;;;;;;;;5030218;28;20056;-58
2023/08/11 05:28:15;;;;;;;15.27;5.50;;;;;;;;;;5030630;28;20029;-59
2023/08/11 05:30:41;;;;;;;15.23;5.00;;;;;;;;;;5031851;28;20428;-57
2023/08/11 05:33:08;;;;;;;11.80;4.90;;;;;;;;;;5029695;28;22070;-57
2023/08/11 05:35:34;;;;;;;7.35;4.07;;;;;;;;;;5028138;28;20025;-52
2023/08/11 05:38:01;;;;;;;10.68;5.00;;;;;;;;;;5030744;28;20711;-56
2023/08/11 05:40:28;;;;;;;13.65;4.80;;;;;;;;;;5042577;28;20037;-56
2023/08/11 05:42:54;;;;;;;9.25;4.80;;;;;;;;;;5036030;28;20060;-54
2023/08/11 05:45:19;;;;;;;9.48;4.60;;;;;;;;;;5041396;28;20497;-56
2023/08/11 05:47:45;;;;;;;11.25;4.80;;;;;;;;;;5033411;28;20028;-54
2023/08/11 05:50:11;;;;;;;8.88;4.28;;;;;;;;;;5038230;28;20095;-59
2023/08/11 05:52:37;;;;;;;16.95;4.47;;;;;;;;;;5035672;28;20037;-58
2023/08/11 05:55:03;;;;;;;9.43;4.30;;;;;;;;;;5036079;28;20033;-54
2023/08/11 05:57:29;;;;;;;12.98;5.20;;;;;;;;;;5034291;28;20059;-55
2023/08/11 05:59:56;;;;;;;13.95;5.35;;;;;;;;;;5032188;28;20037;-53
2023/08/11 06:02:22;;;;;;;11.43;4.38;;;;;;;;;;5036938;28;20029;-57
2023/08/11 06:04:48;;;;;;;10.20;4.43;;;;;;;;;;5034241;28;20029;-57
2023/08/11 06:07:15;;;;;;;10.13;4.78;;;;;;;;;;5038693;28;20032;-58
2023/08/11 06:09:40;;;;;;;8.55;5.00;;;;;;;;;;5026141;28;20061;-52
2023/08/11 06:12:06;;;;;;;9.38;4.85;;;;;;;;;;5034826;28;20126;-57
2023/08/11 06:14:33;;;;;;;15.80;5.03;;;;;;;;;;5036968;28;20040;-57
2023/08/11 06:16:59;;;;;;;9.68;5.00;;;;;;;;;;5034569;28;20041;-56
2023/08/11 06:19:25;;;;;;;12.52;4.63;;;;;;;;;;5034227;28;20103;-53
2023/08/11 06:21:51;;;;;;;8.00;5.00;;;;;;;;;;5033330;28;20021;-56
2023/08/11 06:24:17;;;;;;;8.63;4.43;;;;;;;;;;5031265;28;20025;-57
2023/08/11 06:26:44;;;;;;;11.18;4.88;;;;;;;;;;5039399;28;20504;-55
2023/08/11 06:29:10;;;;;;;14.15;5.45;;;;;;;;;;5036760;28;20025;-54
2023/08/11 06:31:36;;;;;;;10.93;5.30;;;;;;;;;;5036955;28;20021;-53
2023/08/11 06:34:02;;;;;;;12.52;5.28;;;;;;;;;;5031899;28;20155;-53
2023/08/11 06:36:28;;;;;;;16.83;5.05;;;;;;;;;;5041320;28;20036;-58
2023/08/11 06:38:54;;;;;;;11.10;4.93;;;;;;;;;;5032123;28;20033;-54
2023/08/11 06:41:20;;;;;;;18.63;6.28;;;;;;;;;;5031415;28;20112;-56
2023/08/11 06:43:47;;;;;;;29.30;7.05;;;;;;;;;;5033879;28;20444;-54
2023/08/11 06:46:14;;;;;;;14.98;6.78;;;;;;;;;;5031551;28;20044;-52
2023/08/11 06:48:41;;;;;;;21.38;5.70;;;;;;;;;;5034536;28;20515;-51
2023/08/11 06:51:07;;;;;;;17.50;7.60;;;;;;;;;;5036675;28;20492;-54
2023/08/11 06:53:33;;;;;;;21.40;6.15;;;;;;;;;;5033509;28;20036;-57
2023/08/11 06:55:59;;;;;;;13.40;6.22;;;;;;;;;;5030874;28;20528;-54
2023/08/11 06:58:25;;;;;;;17.02;5.57;;;;;;;;;;5033193;28;20041;-53
2023/08/11 07:00:51;;;;;;;16.48;5.63;;;;;;;;;;5034006;28;20061;-55
2023/08/11 07:03:17;;;;;;;12.80;5.13;;;;;;;;;;5032427;28;20445;-56
2023/08/11 07:05:43;;;;;;;13.55;5.20;;;;;;;;;;5034267;28;20497;-55
2023/08/11 07:08:09;;;;;;;12.82;5.65;;;;;;;;;;5031010;28;20029;-57
2023/08/11 07:10:35;;;;;;;11.40;4.57;;;;;;;;;;5032409;28;20622;-57
2023/08/11 07:13:00;;;;;;;9.88;4.63;;;;;;;;;;5036542;28;20397;-57
2023/08/11 07:15:27;;;;;;;21.25;5.13;;;;;;;;;;5031783;28;20585;-54
2023/08/11 07:17:53;;;;;;;10.05;6.00;;;;;;;;;;5033384;28;20036;-54
2023/08/11 07:20:19;;;;;;;11.55;4.50;;;;;;;;;;5030605;28;20527;-56
2023/08/11 07:22:45;;;;;;;17.50;6.63;;;;;;;;;;5038093;28;20026;-51
2023/08/11 07:25:12;;;;;;;12.48;5.65;;;;;;;;;;5035350;28;20032;-52
2023/08/11 07:27:37;;;;;;;10.48;4.90;;;;;;;;;;5031545;28;20029;-52
2023/08/11 07:30:04;;;;;;;9.32;4.82;;;;;;;;;;5030752;28;20116;-60
2023/08/11 07:32:30;;;;;;;9.40;4.25;;;;;;;;;;5031363;28;20535;-59
2023/08/11 07:34:56;;;;;;;10.90;4.45;;;;;;;;;;5036708;28;20116;-56
2023/08/11 07:37:22;;;;;;;9.18;3.83;;;;;;;;;;5034497;28;20041;-57
2023/08/11 07:39:48;;;;;;;8.02;4.03;;;;;;;;;;5029588;28;20229;-54
2023/08/11 07:42:14;;;;;;;13.63;4.65;;;;;;;;;;5031809;28;20061;-53
2023/08/11 07:44:40;;;;;;;9.98;4.25;;;;;;;;;;5027966;28;20880;-56
2023/08/11 07:47:06;;;;;;;8.32;4.70;;;;;;;;;;5033903;28;20056;-58
2023/08/11 07:49:32;;;;;;;10.77;4.43;;;;;;;;;;5031765;28;20493;-56
2023/08/11 07:51:58;;;;;;;10.55;4.15;;;;;;;;;;5035131;28;20028;-55
2023/08/11 07:54:24;;;;;;;8.55;3.67;;;;;;;;;;5036174;28;20032;-58
2023/08/11 07:56:50;;;;;;;7.90;3.83;;;;;;;;;;5033896;28;20435;-57
2023/08/11 07:59:16;;;;;;;11.73;3.95;;;;;;;;;;5036967;28;20033;-58
2023/08/11 08:01:42;;;;;;;11.82;4.25;;;;;;;;;;5031191;28;20107;-60
2023/08/11 08:04:10;;;;;;;11.52;5.88;;;;;;;;;;5027173;28;20124;-59
2023/08/11 08:06:43;;;;;;;8.65;3.92;;;;;;;;;;5033020;28;20048;-57
2023/08/11 08:09:11;;;;;;;8.20;3.55;;;;;;;;;;5031432;28;20071;-58
2023/08/11 08:11:37;;;;;;;9.35;3.78;;;;;;;;;;5030353;28;20025;-56
2023/08/11 08:14:04;;;;;;;9.57;4.00;;;;;;;;;;5036229;28;20032;-58
2023/08/11 08:16:30;;;;;;;8.57;4.05;;;;;;;;;;5038944;28;20060;-56
2023/08/11 08:18:56;;;;;;;8.18;3.63;;;;;;;;;;5027638;28;20646;-56
2023/08/11 08:21:21;;;;;;;7.43;3.47;;;;;;;;;;5026708;28;20378;-59
2023/08/11 08:23:48;;;;;;;7.68;3.85;;;;;;;;;;5029114;28;20067;-57
2023/08/11 08:26:14;;;;;;;6.80;3.67;;;;;;;;;;5028890;28;20552;-52
2023/08/11 08:28:40;;;;;;;6.88;3.53;;;;;;;;;;5032982;28;20030;-55
2023/08/11 08:31:06;;;;;;;9.00;4.22;;;;;;;;;;5034164;28;20069;-55
2023/08/11 08:33:32;;;;;;;7.22;3.88;;;;;;;;;;5030093;28;20108;-56
2023/08/11 08:35:58;;;;;;;10.40;3.97;;;;;;;;;;5027590;28;20087;-58
2023/08/11 08:38:24;;;;;;;8.57;3.65;;;;;;;;;;5032201;28;20041;-58
2023/08/11 08:40:50;;;;;;;7.47;4.13;;;;;;;;;;5029151;28;20033;-55
2023/08/11 08:43:16;;;;;;;7.88;3.47;;;;;;;;;;5036247;28;20026;-55
2023/08/11 08:45:43;;;;;;;8.02;4.20;;;;;;;;;;5032212;28;20497;-52
2023/08/11 08:48:13;;;;;;;7.60;4.07;;;;;;;;;;5032947;28;20144;-56
2023/08/11 08:50:39;;;;;;;7.35;3.63;;;;;;;;;;5028260;28;20032;-56
2023/08/11 08:53:05;;;;;;;10.48;3.50;;;;;;;;;;5029198;28;20430;-56
2023/08/11 08:55:32;;;;;;;5.05;3.15;;;;;;;;;;5043351;28;20431;-60
2023/08/11 08:57:58;;;;;;;9.95;3.30;;;;;;;;;;5029768;28;20408;-54
2023/08/11 09:00:24;;;;;;;19.25;4.10;;;;;;;;;;5032644;28;20041;-57
2023/08/11 09:02:50;;;;;;;8.32;3.30;;;;;;;;;;5035284;28;20033;-53
2023/08/11 09:05:17;;;;;;;12.27;4.53;;;;;;;;;;5030738;28;20097;-57
2023/08/11 09:07:43;;;;;;;4.43;3.13;;;;;;;;;;5038506;28;20029;-57
2023/08/11 09:10:09;;;;;;;10.13;3.58;;;;;;;;;;5039094;28;20025;-59
2023/08/11 09:12:35;;;;;;;7.95;3.15;;;;;;;;;;5035944;28;20029;-59
2023/08/11 09:15:11;;;;;;;9.85;3.33;;;;;;;;;;5032240;28;20036;-59
2023/08/11 09:17:38;;;;;;;5.97;2.90;;;;;;;;;;5036255;28;20030;-59
2023/08/11 09:20:06;;;;;;;6.45;2.72;;;;;;;;;;5031848;28;20034;-56
2023/08/11 09:22:32;;;;;;;10.50;3.75;;;;;;;;;;5036113;28;20052;-59
2023/08/11 09:24:58;;;;;;;10.60;3.88;;;;;;;;;;5033148;28;20028;-57
2023/08/11 09:27:24;;;;;;;5.65;2.92;;;;;;;;;;5032927;28;20037;-58
2023/08/11 09:29:50;;;;;;;5.25;3.00;;;;;;;;;;5039746;28;20025;-59
2023/08/11 09:32:16;;;;;;;6.95;2.83;;;;;;;;;;5035052;28;20056;-56
2023/08/11 09:34:43;;;;;;;6.35;3.05;;;;;;;;;;5037930;28;20020;-55
2023/08/11 09:37:10;;;;;;;9.48;2.97;;;;;;;;;;5035028;28;20436;-58
2023/08/11 09:39:37;;;;;;;12.02;3.28;;;;;;;;;;5034358;28;20107;-57
2023/08/11 09:42:04;;;;;;;8.95;3.10;;;;;;;;;;5033071;28;20021;-57
2023/08/11 09:44:30;;;;;;;6.32;3.05;;;;;;;;;;5027329;28;20116;-53
2023/08/11 09:46:56;;;;;;;7.13;3.60;;;;;;;;;;5030181;28;20061;-57
2023/08/11 09:49:22;;;;;;;7.57;3.20;;;;;;;;;;5030832;28;20100;-56
2023/08/11 09:51:50;;;;;;;6.40;3.08;;;;;;;;;;5029884;28;20049;-55
2023/08/11 09:54:17;;;;;;;10.85;3.13;;;;;;;;;;5035149;28;20452;-56
2023/08/11 09:56:43;;;;;;;4.22;2.95;;;;;;;;;;5035945;28;20049;-56
2023/08/11 09:59:13;;;;;;;11.40;3.28;;;;;;;;;;5031346;28;20036;-54
2023/08/11 10:01:41;;;;;;;6.85;3.08;;;;;;;;;;5032468;28;20045;-55
2023/08/11 10:04:10;;;;;;;5.18;3.13;;;;;;;;;;5031329;28;20088;-57
2023/08/11 10:06:37;;;;;;;5.88;2.80;;;;;;;;;;5027315;28;20022;-58
2023/08/11 10:09:03;;;;;;;6.85;3.40;;;;;;;;;;5030356;28;20017;-59
2023/08/11 10:11:31;;;;;;;5.82;2.58;;;;;;;;;;5034542;28;20028;-58
2023/08/11 10:13:58;;;;;;;10.73;3.40;;;;;;;;;;5031041;28;20551;-56
2023/08/11 10:16:24;;;;;;;17.13;5.20;;;;;;;;;;5026269;28;20044;-56
2023/08/11 10:18:51;;;;;;;6.82;3.08;;;;;;;;;;5029942;28;20033;-58
2023/08/11 10:21:17;;;;;;;6.70;2.80;;;;;;;;;;5029595;28;20041;-57
2023/08/11 10:23:44;;;;;;;12.30;4.13;;;;;;;;;;5028880;28;20550;-59
2023/08/11 10:26:10;;;;;;;19.55;4.10;;;;;;;;;;5029256;28;20037;-57
2023/08/11 10:28:36;;;;;;;8.77;3.20;;;;;;;;;;5032657;28;20022;-56
2023/08/11 10:31:04;;;;;;;7.70;4.00;;;;;;;;;;5031909;28;20030;-52
2023/08/11 10:33:31;;;;;;;4.88;2.90;;;;;;;;;;5032076;28;20108;-53
2023/08/11 10:35:58;;;;;;;10.63;3.83;;;;;;;;;;5031086;28;20033;-57
2023/08/11 10:38:29;;;;;;;14.00;4.40;;;;;;;;;;5033071;28;20053;-59
2023/08/11 10:41:03;;;;;;;15.18;4.55;;;;;;;;;;5038435;28;20025;-57
2023/08/11 10:43:37;;;;;;;7.38;3.65;;;;;;;;;;5031576;28;20032;-56
2023/08/11 10:46:23;;;;;;;9.45;3.25;;;;;;;;;;5042160;28;20032;-56
2023/08/11 10:48:59;;;;;;;9.77;3.85;;;;;;;;;;5032742;28;20022;-55
2023/08/11 10:51:26;;;;;;;9.27;4.13;;;;;;;;;;5031698;28;20059;-57
2023/08/11 10:53:54;;;;;;;5.15;2.65;;;;;;;;;;5028824;28;20037;-53
2023/08/11 10:56:27;;;;;;;7.93;3.33;;;;;;;;;;5028689;28;20044;-55
2023/08/11 10:58:53;;;;;;;6.55;2.72;;;;;;;;;;5032324;28;20029;-57
2023/08/11 11:01:19;;;;;;;4.40;2.97;;;;;;;;;;5026735;28;20063;-56
2023/08/11 11:03:45;;;;;;;5.18;2.67;;;;;;;;;;5029704;28;20397;-58
2023/08/11 11:06:15;;;;;;;4.05;2.35;;;;;;;;;;5028856;28;20128;-57
2023/08/11 11:08:41;;;;;;;4.93;2.55;;;;;;;;;;5023079;28;20017;-57
2023/08/11 11:11:07;;;;;;;5.72;2.78;;;;;;;;;;5028195;28;20029;-55
2023/08/11 11:13:33;;;;;;;4.80;3.05;;;;;;;;;;5026457;28;20022;-58
2023/08/11 11:15:59;;;;;;;6.47;2.70;;;;;;;;;;5028266;28;20598;-56
2023/08/11 11:18:27;;;;;;;3.70;2.78;;;;;;;;;;5035955;28;20444;-56
2023/08/11 11:20:53;;;;;;;5.80;3.15;;;;;;;;;;5030263;28;20026;-58
2023/08/11 11:23:19;;;;;;;9.15;3.38;;;;;;;;;;5028727;28;20138;-56
2023/08/11 11:25:45;;;;;;;4.00;2.80;;;;;;;;;;5032692;28;20120;-56
2023/08/11 11:28:12;;;;;;;5.88;3.05;;;;;;;;;;5031512;28;20036;-57
2023/08/11 11:30:38;;;;;;;8.73;2.92;;;;;;;;;;5031003;28;20098;-55
2023/08/11 11:33:04;;;;;;;5.10;2.83;;;;;;;;;;5026451;28;20440;-53
2023/08/11 11:35:30;;;;;;;4.05;2.90;;;;;;;;;;5028933;28;20116;-55
2023/08/11 11:37:58;;;;;;;9.15;2.40;;;;;;;;;;5034652;28;20104;-56
2023/08/11 11:40:24;;;;;;;9.88;2.88;;;;;;;;;;5034306;28;20112;-56
2023/08/11 11:42:50;;;;;;;8.48;3.03;;;;;;;;;;5035947;28;20112;-56
2023/08/11 11:45:16;;;;;;;8.05;2.85;;;;;;;;;;5026757;28;20048;-56
2023/08/11 11:47:46;;;;;;;4.35;2.60;;;;;;;;;;5027428;28;20017;-56
2023/08/11 11:50:11;;;;;;;3.72;2.70;;;;;;;;;;5032769;28;20017;-57
2023/08/11 11:52:37;;;;;;;6.90;2.88;;;;;;;;;;5034757;28;20036;-55
2023/08/11 11:55:05;;;;;;;4.97;3.25;;;;;;;;;;5025745;28;20030;-55
2023/08/11 11:57:31;;;;;;;5.00;2.88;;;;;;;;;;5028359;28;20025;-58
2023/08/11 11:59:57;;;;;;;6.05;2.50;;;;;;;;;;5028730;28;20030;-57
2023/08/11 12:02:23;;;;;;;10.82;2.67;;;;;;;;;;5025241;28;20037;-57
2023/08/11 12:04:49;;;;;;;6.03;2.58;;;;;;;;;;5033220;28;20140;-57
2023/08/11 12:07:34;;;;;;;4.15;2.53;;;;;;;;;;5028668;28;20112;-56
2023/08/11 12:10:00;;;;;;;6.40;2.80;;;;;;;;;;5030412;28;20468;-59
2023/08/11 12:12:27;;;;;;;3.22;2.45;;;;;;;;;;5035540;28;20032;-57
2023/08/11 12:14:53;;;;;;;3.58;2.55;;;;;;;;;;5028296;28;20037;-59
2023/08/11 12:17:21;;;;;;;5.68;2.22;;;;;;;;;;5025161;28;20056;-58
2023/08/11 12:19:48;;;;;;;4.20;2.40;;;;;;;;;;5024704;28;20018;-54
2023/08/11 12:22:14;;;;;;;3.22;2.33;;;;;;;;;;5029586;28;20082;-56
2023/08/11 12:24:40;;;;;;;4.75;2.05;;;;;;;;;;5031042;28;20037;-57
2023/08/11 12:27:06;;;;;;;8.35;2.40;;;;;;;;;;5028156;28;20447;-54
2023/08/11 12:29:32;;;;;;;4.68;2.22;;;;;;;;;;5035953;28;20025;-56
2023/08/11 12:31:57;;;;;;;7.25;2.70;;;;;;;;;;5027909;28;20053;-56
2023/08/11 12:34:24;;;;;;;4.30;2.35;;;;;;;;;;5026986;28;20136;-57
2023/08/11 12:36:50;;;;;;;5.32;2.88;;;;;;;;;;5029169;28;20087;-58
2023/08/11 12:39:16;;;;;;;5.63;2.28;;;;;;;;;;5033093;28;20057;-58
2023/08/11 12:41:42;;;;;;;9.23;2.45;;;;;;;;;;5027060;28;20164;-56
2023/08/11 12:44:08;;;;;;;5.05;2.60;;;;;;;;;;5027924;28;20112;-56
2023/08/11 12:46:36;;;;;;;6.28;2.90;;;26.10;96.60;;;;;;5026120;28;20013;-55
2023/08/11 12:49:02;;;;;;;5.20;2.90;;;33.40;90.00;;;;;;5030299;28;20393;-56
2023/08/11 12:51:27;;;;;;;5.13;2.47;;;33.30;86.80;;;;;;5034500;28;20022;-55
2023/08/11 12:53:53;;;;;;;7.22;2.58;;;33.10;92.20;;;;;;5026795;28;20041;-57
2023/08/11 12:56:18;;;;;;;5.60;2.42;;;32.70;89.80;;;;;;5022232;28;20034;-57
2023/08/11 12:58:44;;;;;;;3.47;2.70;;;32.60;88.40;;;;;;5029718;28;20033;-50
2023/08/11 13:01:09;;;;;;;9.10;2.55;;;32.80;90.80;;;;;;5029125;28;20499;-54
2023/08/11 13:03:35;;;;;;;4.30;2.58;;;32.40;87.90;;;;;;5027025;28;20082;-52
2023/08/11 13:06:00;;;;;;;4.93;2.63;;;32.30;90.00;;;;;;5030259;28;20029;-54
2023/08/11 13:08:26;;;;;;;12.55;2.92;;;32.50;92.50;;;;;;5029915;28;20033;-55
2023/08/11 13:10:52;;;;;;;3.45;2.80;;;32.30;92.20;;;;;;5029539;28;20099;-57
2023/08/11 13:13:17;;;;;;;3.40;2.03;;;32.40;92.70;;;;;;5029976;28;20048;-58
2023/08/11 13:15:47;;;;;;;6.80;2.60;;;32.60;90.50;;;;;;5031689;28;20030;-56
2023/08/11 13:18:13;;;;;;;3.85;2.65;;;32.80;90.30;;;;;;5026539;28;20040;-52
2023/08/11 13:20:38;;;;;;;4.32;2.40;;;33.00;85.30;;;;;;5025132;28;20037;-56
2023/08/11 13:23:04;;;;;;;10.50;2.67;;;33.30;84.40;;;;;;5028188;28;20474;-58
2023/08/11 13:25:29;;;;;;;4.75;2.80;;;32.90;91.20;;;;;;5034176;28;20022;-57
2023/08/11 13:27:55;;;;;;;6.38;2.28;;;32.80;93.10;;;;;;5029594;28;20075;-58
2023/08/11 13:30:21;;;;;;;3.00;1.80;;;32.60;93.50;;;;;;5035944;28;20048;-57
2023/08/11 13:32:47;;;;;;;3.80;2.40;;;33.10;91.80;;;;;;5027514;28;20032;-58
2023/08/11 13:35:13;;;;;;;4.53;2.45;;;33.40;90.70;;;;;;5030060;28;20037;-56
2023/08/11 13:37:39;;;;;;;4.00;2.47;;;33.40;87.20;;;;;;5024217;28;20124;-58
2023/08/11 13:40:05;;;;;;;9.75;2.50;;;33.10;87.30;;;;;;5029913;28;20060;-55
2023/08/11 13:42:31;;;;;;;5.90;2.47;;;33.40;88.70;;;;;;5031913;28;20509;-56
2023/08/11 13:44:57;;;;;;;2.58;1.92;;;33.10;87.30;;;;;;5029596;28;20022;-55
2023/08/11 13:47:24;;;;;;;3.20;2.13;;;33.10;85.40;;;;;;5024812;28;20460;-56
2023/08/11 13:49:50;;;;;;;4.50;2.33;;;33.00;90.30;;;;;;5028822;28;20067;-54
2023/08/11 13:52:15;;;;;;;3.83;2.40;;;32.90;87.40;;;;;;5032282;28;20029;-53
2023/08/11 13:55:02;;;;;;;4.20;2.38;;;32.30;83.50;;;;;;5033062;28;20037;-54
2023/08/11 13:57:28;;;;;;;4.45;2.30;;;32.30;85.50;;;;;;5030398;28;20029;-53
2023/08/11 13:59:59;;;;;;;3.13;2.15;;;32.30;90.10;;;;;;5025879;28;20041;-57
2023/08/11 14:02:26;;;;;;;3.25;2.53;;;32.50;89.60;;;;;;5033809;28;20040;-55
2023/08/11 14:04:52;;;;;;;2.97;2.45;;;32.60;86.90;;;;;;5023173;28;20033;-54
2023/08/11 14:07:21;;;;;;;3.72;2.10;;;33.10;80.20;;;;;;5024180;28;20037;-54
2023/08/11 14:09:46;;;;;;;4.38;2.47;;;33.30;79.60;;;;;;5031453;28;20029;-57
2023/08/11 14:12:14;;;;;;;2.72;2.33;;;33.30;80.80;;;;;;5026849;28;20028;-58
2023/08/11 14:14:39;;;;;;;5.55;2.53;;;33.20;79.50;;;;;;5025741;28;20064;-58
2023/08/11 14:17:05;;;;;;;5.68;2.13;;;32.90;79.60;;;;;;5024801;28;20053;-56
2023/08/11 14:19:30;;;;;;;3.28;2.42;;;32.90;79.00;;;;;;5030763;28;20029;-57